Time;durP1;ratioP1;P1;durP2;ratioP2;P2;SDS_P1;SDS_P2;PMS_P1;PMS_P2;Temp;Humidity;BMP_temperature;BMP_pressure;BME280_temperature;BME280_humidity;BME280_pressure;Samples;Min_cycle;Max_cycle;Signal;HPM_P1;HPM_P2
2022/01/22 00:02:21;;;;;;;5.85;1.60;;;2.20;45.80;;;;;;6095834;23;20177;-68
2022/01/22 00:04:49;;;;;;;2.47;1.20;;;2.20;46.10;;;;;;6096752;23;20466;-68
2022/01/22 00:07:16;;;;;;;2.40;1.20;;;2.20;45.60;;;;;;6095850;23;20170;-68
2022/01/22 00:09:50;;;;;;;2.10;1.00;;;2.20;45.70;;;;;;6096145;23;20718;-68
2022/01/22 00:12:29;;;;;;;3.47;1.55;;;2.20;45.70;;;;;;6095973;23;20158;-71
2022/01/22 00:14:59;;;;;;;6.35;1.38;;;2.20;45.70;;;;;;6096010;23;20670;-68
2022/01/22 00:17:27;;;;;;;2.63;1.48;;;2.20;45.30;;;;;;6095812;23;20717;-68
2022/01/22 00:19:54;;;;;;;3.58;1.15;;;2.20;45.70;;;;;;6096208;23;20170;-68
2022/01/22 00:22:26;;;;;;;4.22;1.90;;;2.20;45.60;;;;;;6096167;23;20172;-68
2022/01/22 00:25:01;;;;;;;3.75;1.40;;;2.20;45.60;;;;;;6096505;23;20479;-68
2022/01/22 00:27:29;;;;;;;2.38;1.40;;;2.20;45.50;;;;;;6095904;23;20217;-68
2022/01/22 00:29:58;;;;;;;3.60;1.20;;;2.20;45.20;;;;;;6095883;23;20651;-69
2022/01/22 00:32:26;;;;;;;4.93;1.20;;;2.20;45.20;;;;;;6095782;23;20224;-69
2022/01/22 00:34:53;;;;;;;6.45;1.40;;;2.20;44.80;;;;;;6095959;23;20178;-69
2022/01/22 00:37:21;;;;;;;3.05;1.23;;;2.20;45.10;;;;;;6096023;23;20277;-68
2022/01/22 00:39:49;;;;;;;2.85;0.90;;;2.10;44.70;;;;;;6096018;23;20173;-68
2022/01/22 00:42:21;;;;;;;3.25;0.88;;;2.00;44.80;;;;;;6094916;23;20240;-69
2022/01/22 00:44:51;;;;;;;2.92;1.45;;;1.90;45.10;;;;;;6095565;23;20162;-68
2022/01/22 00:47:20;;;;;;;3.67;1.50;;;1.90;45.10;;;;;;6095591;23;20169;-68
2022/01/22 00:49:48;;;;;;;3.20;1.30;;;2.00;45.10;;;;;;6095475;23;20201;-68
2022/01/22 00:52:15;;;;;;;2.92;1.23;;;2.00;45.20;;;;;;6095294;23;20201;-68
2022/01/22 00:54:43;;;;;;;2.40;1.00;;;2.00;45.20;;;;;;6095391;23;20268;-68
2022/01/22 00:57:10;;;;;;;9.57;4.60;;;2.10;45.10;;;;;;6095132;23;20276;-68
2022/01/22 00:59:38;;;;;;;5.35;1.83;;;2.10;45.00;;;;;;6095784;23;20170;-68
2022/01/22 01:02:06;;;;;;;5.20;2.00;;;2.10;45.00;;;;;;6095563;23;20288;-68
2022/01/22 01:04:37;;;;;;;4.88;1.48;;;2.20;45.30;;;;;;6095584;23;20220;-69
2022/01/22 01:07:05;;;;;;;3.45;1.58;;;2.10;45.50;;;;;;6096012;23;20314;-68
2022/01/22 01:09:36;;;;;;;2.90;1.15;;;2.30;45.50;;;;;;6095636;23;20232;-68
2022/01/22 01:12:07;;;;;;;2.50;1.70;;;2.30;45.10;;;;;;6095831;23;20213;-73
2022/01/22 01:14:43;;;;;;;3.88;1.50;;;2.30;44.40;;;;;;6094890;23;20570;-68
2022/01/22 01:17:45;;;;;;;4.20;1.40;;;2.30;44.50;;;;;;6095556;23;20192;-69
2022/01/22 01:34:18;;;;;;;4.18;1.25;;;2.50;45.10;;;;;;6095246;23;20164;-68
2022/01/22 01:36:53;;;;;;;1.80;0.85;;;2.50;45.00;;;;;;6095166;23;20205;-68
2022/01/22 01:39:25;;;;;;;2.20;0.80;;;2.60;44.90;;;;;;6095606;23;20157;-68
2022/01/22 01:42:01;;;;;;;3.05;1.00;;;2.60;45.00;;;;;;6094998;23;20162;-68
2022/01/22 01:44:28;;;;;;;4.47;1.08;;;2.60;44.90;;;;;;6095359;23;20649;-68
2022/01/22 01:47:03;;;;;;;3.58;1.23;;;2.60;44.80;;;;;;6095226;23;20543;-67
2022/01/22 01:49:34;;;;;;;1.90;0.80;;;2.60;44.40;;;;;;6095819;23;20165;-68
2022/01/22 01:52:07;;;;;;;4.32;1.20;;;2.50;44.40;;;;;;6095185;23;20158;-68
2022/01/22 01:54:45;;;;;;;1.55;0.73;;;2.50;44.70;;;;;;6095254;23;20590;-68
2022/01/22 01:57:32;;;;;;;3.03;1.42;;;2.60;44.80;;;;;;6095217;23;20815;-68
2022/01/22 02:00:05;;;;;;;4.97;1.25;;;2.60;45.00;;;;;;6095634;23;20265;-68
2022/01/22 02:02:37;;;;;;;3.05;1.20;;;2.60;45.00;;;;;;6095034;23;20179;-68
2022/01/22 02:05:07;;;;;;;3.35;1.45;;;2.60;44.80;;;;;;6095357;23;20200;-68
2022/01/22 02:07:45;;;;;;;3.47;1.42;;;2.60;44.70;;;;;;6095391;23;20162;-68
2022/01/22 02:10:22;;;;;;;3.17;1.00;;;2.60;44.50;;;;;;6095306;23;20157;-67
2022/01/22 02:24:19;;;;;;;2.78;0.90;;;2.60;44.40;;;;;;6095283;23;20160;-68
2022/01/22 02:26:49;;;;;;;2.85;1.25;;;2.60;44.40;;;;;;6094416;23;20162;-69
2022/01/22 02:29:18;;;;;;;1.70;0.75;;;2.60;44.00;;;;;;6095272;23;20465;-68
2022/01/22 02:32:02;;;;;;;3.08;1.00;;;2.60;44.20;;;;;;6094844;23;20170;-68
2022/01/22 02:34:49;;;;;;;1.83;1.00;;;2.60;44.40;;;;;;6095421;23;20157;-68
2022/01/22 02:37:30;;;;;;;2.55;1.20;;;2.60;44.20;;;;;;6095530;23;20239;-68
2022/01/22 02:40:04;;;;;;;3.15;0.93;;;2.60;44.10;;;;;;6095252;23;20528;-68
2022/01/22 02:42:37;;;;;;;2.85;0.90;;;2.60;44.40;;;;;;6094995;23;20618;-68
2022/01/22 02:45:08;;;;;;;1.98;0.80;;;2.60;44.40;;;;;;6095368;23;20217;-69
2022/01/22 02:47:45;;;;;;;3.15;0.75;;;2.70;44.30;;;;;;6094997;23;20237;-67
2022/01/22 02:50:13;;;;;;;1.88;0.88;;;2.70;44.40;;;;;;6095177;23;20535;-68
2022/01/22 02:52:43;;;;;;;1.90;0.73;;;2.70;44.00;;;;;;6095349;23;20645;-68
2022/01/22 02:55:14;;;;;;;4.22;0.65;;;2.60;43.80;;;;;;6095367;23;20197;-69
2022/01/22 02:57:47;;;;;;;2.35;0.70;;;2.70;43.90;;;;;;6094976;23;20193;-68
2022/01/22 03:00:22;;;;;;;2.92;0.80;;;2.70;44.00;;;;;;6095337;23;20162;-68
2022/01/22 03:02:51;;;;;;;3.00;0.95;;;2.70;43.80;;;;;;6095551;23;20251;-68
2022/01/22 03:05:23;;;;;;;3.15;1.05;;;2.70;43.90;;;;;;6094714;23;20244;-68
2022/01/22 03:08:02;;;;;;;3.25;1.00;;;2.70;43.80;;;;;;6094991;23;20158;-68
2022/01/22 03:10:30;;;;;;;2.70;1.17;;;2.70;43.80;;;;;;6095340;23;20168;-68
2022/01/22 03:16:01;;;;;;;4.55;1.08;;;2.70;43.70;;;;;;6094883;23;20164;-68
2022/01/22 03:18:45;;;;;;;2.78;0.90;;;2.70;43.30;;;;;;6095281;23;20618;-69
2022/01/22 03:21:36;;;;;;;3.53;1.10;;;2.70;43.30;;;;;;6095468;23;20177;-68
2022/01/22 03:27:22;;;;;;;2.30;0.90;;;2.70;43.00;;;;;;6095486;23;20213;-69
2022/01/22 03:29:51;;;;;;;4.25;1.10;;;2.70;42.90;;;;;;6094682;23;20320;-67
2022/01/22 03:32:20;;;;;;;2.50;0.98;;;2.70;43.00;;;;;;6095301;23;20181;-68
2022/01/22 03:34:58;;;;;;;3.80;0.80;;;2.60;43.00;;;;;;6095603;23;20170;-68
2022/01/22 03:37:27;;;;;;;1.70;0.65;;;2.60;42.80;;;;;;6094832;23;20209;-68
2022/01/22 03:39:57;;;;;;;1.75;0.70;;;2.60;43.00;;;;;;6095213;23;20172;-68
2022/01/22 03:42:24;;;;;;;1.50;0.73;;;2.60;42.80;;;;;;6094790;23;20170;-68
2022/01/22 03:44:57;;;;;;;2.15;0.90;;;2.60;43.30;;;;;;6097310;23;20212;-68
2022/01/22 03:47:27;;;;;;;1.90;0.90;;;2.60;42.70;;;;;;6096683;23;20158;-68
2022/01/22 03:49:54;;;;;;;2.03;0.80;;;2.60;42.70;;;;;;6097271;23;20154;-68
2022/01/22 03:52:23;;;;;;;1.90;1.00;;;2.60;42.50;;;;;;6096978;23;20541;-68
2022/01/22 03:54:57;;;;;;;1.92;0.77;;;2.60;42.50;;;;;;6096728;23;20170;-68
2022/01/22 03:57:27;;;;;;;2.60;0.90;;;2.60;42.70;;;;;;6097103;23;20185;-69
2022/01/22 03:59:56;;;;;;;2.70;0.77;;;2.60;42.30;;;;;;6097322;23;20205;-68
2022/01/22 04:05:11;;;;;;;1.88;0.82;;;2.60;42.30;;;;;;6092401;23;20594;-68
2022/01/22 04:10:34;;;;;;;2.30;0.70;;;2.60;42.70;;;;;;6097340;23;20202;-68
2022/01/22 04:13:05;;;;;;;1.90;0.80;;;2.60;43.10;;;;;;6097242;23;20222;-68
2022/01/22 04:15:40;;;;;;;2.10;0.80;;;2.60;43.70;;;;;;6097425;23;20201;-68
2022/01/22 04:26:39;;;;;;;2.88;1.02;;;2.60;46.80;;;;;;6052246;23;20621;-68
2022/01/22 04:29:15;;;;;;;2.22;1.00;;;2.50;47.60;;;;;;6097091;23;20590;-68
2022/01/22 04:31:51;;;;;;;2.35;0.90;;;2.50;48.20;;;;;;6097034;23;20153;-68
2022/01/22 04:34:22;;;;;;;2.13;0.80;;;2.50;48.70;;;;;;6096788;23;20440;-68
2022/01/22 04:36:55;;;;;;;2.05;0.90;;;2.50;49.70;;;;;;6096768;23;20166;-68
2022/01/22 04:39:24;;;;;;;1.80;1.10;;;2.40;50.10;;;;;;6096434;23;20185;-68
2022/01/22 04:41:55;;;;;;;4.05;1.10;;;2.50;50.50;;;;;;6096996;23;20602;-73
2022/01/22 04:44:34;;;;;;;2.60;0.82;;;2.50;50.60;;;;;;6096622;23;20237;-68
2022/01/22 04:47:19;;;;;;;2.75;0.90;;;2.50;51.00;;;;;;6096905;23;20157;-68
2022/01/22 04:52:42;;;;;;;3.88;1.20;;;2.50;50.90;;;;;;6096957;23;20161;-68
2022/01/22 04:55:17;;;;;;;3.22;1.20;;;2.50;50.50;;;;;;6095835;23;20253;-68
2022/01/22 04:57:49;;;;;;;1.60;0.70;;;2.50;50.20;;;;;;6096313;23;20176;-68
2022/01/22 05:00:20;;;;;;;2.80;0.90;;;2.40;49.80;;;;;;6096117;23;20200;-69
2022/01/22 05:02:48;;;;;;;1.80;0.90;;;2.40;49.50;;;;;;6096591;23;20181;-68
2022/01/22 05:05:18;;;;;;;2.78;1.02;;;2.40;49.40;;;;;;6096451;23;20501;-68
2022/01/22 05:07:53;;;;;;;2.97;1.20;;;2.40;49.40;;;;;;6096211;23;20181;-68
2022/01/22 05:10:21;;;;;;;1.83;0.75;;;2.40;49.20;;;;;;6096388;23;20153;-69
2022/01/22 05:12:56;;;;;;;2.03;0.80;;;2.40;49.20;;;;;;6096383;23;20166;-68
2022/01/22 05:15:38;;;;;;;1.55;0.75;;;2.40;49.10;;;;;;6096862;23;20271;-68
2022/01/22 05:18:08;;;;;;;2.20;1.17;;;2.50;49.30;;;;;;6096148;23;20193;-68
2022/01/22 05:20:45;;;;;;;1.98;1.00;;;2.40;49.30;;;;;;6096284;23;20532;-68
2022/01/22 05:23:23;;;;;;;3.75;0.90;;;2.50;49.40;;;;;;6096384;23;20158;-68
2022/01/22 05:25:55;;;;;;;1.65;0.90;;;2.50;49.70;;;;;;6095481;23;20158;-71
2022/01/22 05:31:33;;;;;;;3.80;0.80;;;2.50;49.80;;;;;;6090517;23;20250;-68
2022/01/22 05:37:01;;;;;;;2.72;0.93;;;2.50;50.30;;;;;;6096446;23;20214;-68
2022/01/22 05:39:37;;;;;;;4.60;2.05;;;2.50;50.60;;;;;;6096823;23;20181;-68
2022/01/22 05:42:09;;;;;;;2.72;1.15;;;2.60;51.10;;;;;;6095764;23;20153;-68
2022/01/22 05:44:42;;;;;;;1.98;0.70;;;2.60;51.30;;;;;;6096930;23;20154;-68
2022/01/22 05:47:21;;;;;;;2.35;0.70;;;2.60;51.80;;;;;;6095956;23;20153;-68
2022/01/22 05:49:49;;;;;;;2.45;0.90;;;2.60;52.20;;;;;;6096561;23;20459;-68
2022/01/22 05:52:25;;;;;;;1.95;1.10;;;2.60;52.40;;;;;;6096218;23;20166;-68
2022/01/22 05:55:26;;;;;;;2.10;1.00;;;2.60;52.60;;;;;;6095738;23;20609;-68
2022/01/22 06:00:52;;;;;;;2.45;1.15;;;2.60;53.40;;;;;;6015043;23;20178;-68
2022/01/22 06:03:20;;;;;;;2.05;1.20;;;2.60;53.90;;;;;;6095842;23;20153;-68
2022/01/22 06:06:02;;;;;;;3.47;1.30;;;2.60;53.80;;;;;;6096055;23;20197;-68
2022/01/22 06:08:34;;;;;;;1.70;0.70;;;2.60;54.60;;;;;;6096559;23;20154;-68
2022/01/22 06:11:08;;;;;;;1.98;0.90;;;2.60;54.80;;;;;;6095984;23;20154;-68
2022/01/22 06:13:44;;;;;;;1.50;0.70;;;2.70;55.30;;;;;;6096158;23;20737;-68
2022/01/22 06:16:16;;;;;;;2.03;1.10;;;2.60;55.70;;;;;;6095771;23;20157;-68
2022/01/22 06:18:44;;;;;;;2.80;0.93;;;2.60;56.10;;;;;;6095598;23;20181;-68
2022/01/22 06:21:12;;;;;;;2.63;1.00;;;2.60;57.30;;;;;;6095999;23;20188;-70
2022/01/22 06:23:45;;;;;;;2.72;1.27;;;2.50;57.50;;;;;;6096082;23;20253;-68
2022/01/22 06:26:16;;;;;;;3.08;1.63;;;2.50;58.40;;;;;;6096135;23;20160;-68
2022/01/22 06:28:46;;;;;;;5.10;1.50;;;2.40;59.40;;;;;;6095308;23;20590;-68
2022/01/22 06:31:20;;;;;;;2.65;0.95;;;2.30;59.60;;;;;;6095418;23;20285;-67
2022/01/22 06:34:01;;;;;;;3.65;1.92;;;2.30;60.20;;;;;;6096138;23;20161;-68
2022/01/22 06:36:30;;;;;;;1.80;1.20;;;2.30;60.40;;;;;;6095640;23;20168;-68
2022/01/22 06:39:10;;;;;;;2.90;1.85;;;2.30;61.10;;;;;;6095149;23;20194;-68
2022/01/22 06:41:46;;;;;;;2.45;1.33;;;2.20;62.10;;;;;;6095966;23;20158;-68
2022/01/22 06:44:21;;;;;;;2.50;1.33;;;2.10;62.50;;;;;;6095402;23;20158;-68
2022/01/22 06:46:53;;;;;;;2.13;1.20;;;2.10;62.50;;;;;;6095328;23;20161;-68
2022/01/22 06:49:21;;;;;;;1.90;0.95;;;2.20;62.50;;;;;;6095981;23;20472;-68
2022/01/22 06:51:55;;;;;;;2.55;1.70;;;2.20;62.80;;;;;;6095488;23;20166;-68
2022/01/22 06:54:25;;;;;;;4.35;1.20;;;2.20;62.70;;;;;;6095707;23;20158;-68
2022/01/22 06:56:56;;;;;;;2.38;1.20;;;2.20;63.00;;;;;;6095744;23;20176;-68
2022/01/22 06:59:29;;;;;;;2.78;1.23;;;2.20;62.80;;;;;;6095267;23;20186;-70
2022/01/22 07:02:04;;;;;;;2.10;1.20;;;2.20;62.60;;;;;;6095512;23;20263;-68
2022/01/22 07:04:37;;;;;;;2.20;1.05;;;2.20;62.90;;;;;;6095293;23;20157;-68
2022/01/22 07:07:08;;;;;;;4.25;1.00;;;2.20;62.90;;;;;;6096005;23;20165;-68
2022/01/22 07:09:36;;;;;;;2.67;1.45;;;2.30;62.90;;;;;;6095089;23;20228;-68
2022/01/22 07:12:04;;;;;;;2.00;1.10;;;2.20;62.70;;;;;;6096081;23;20208;-68
2022/01/22 07:14:32;;;;;;;4.03;1.10;;;2.20;62.90;;;;;;6094943;23;20204;-67
2022/01/22 07:17:07;;;;;;;2.10;1.23;;;2.20;63.20;;;;;;6095622;23;20689;-68
2022/01/22 07:19:41;;;;;;;2.00;0.98;;;2.30;63.00;;;;;;6096546;23;20184;-69
2022/01/22 07:22:33;;;;;;;2.40;1.30;;;2.40;63.00;;;;;;6094929;23;20473;-68
2022/01/22 07:25:00;;;;;;;1.70;1.10;;;2.40;63.00;;;;;;6096744;23;20233;-68
2022/01/22 07:27:28;;;;;;;1.92;1.15;;;2.50;63.00;;;;;;6097054;23;20169;-68
2022/01/22 07:29:55;;;;;;;8.75;1.30;;;2.50;63.20;;;;;;6096851;23;20170;-68
2022/01/22 07:32:33;;;;;;;4.28;1.50;;;2.50;63.50;;;;;;6097108;23;20201;-70
2022/01/22 07:35:10;;;;;;;2.38;1.30;;;2.60;63.70;;;;;;6097680;23;20221;-68
2022/01/22 07:37:52;;;;;;;2.65;1.60;;;2.60;63.40;;;;;;6097597;23;20601;-68
2022/01/22 07:40:20;;;;;;;2.30;1.45;;;2.60;63.90;;;;;;6097111;23;20188;-68
2022/01/22 07:42:50;;;;;;;3.00;1.88;;;2.60;64.00;;;;;;6097483;23;20514;-68
2022/01/22 07:45:20;;;;;;;2.45;1.63;;;2.70;64.50;;;;;;6097453;23;20169;-68
2022/01/22 07:47:51;;;;;;;6.10;1.80;;;2.80;64.70;;;;;;6097451;23;20208;-68
2022/01/22 07:50:20;;;;;;;3.15;1.55;;;2.80;65.00;;;;;;6097305;23;20154;-68
2022/01/22 07:52:49;;;;;;;2.53;1.48;;;2.80;65.20;;;;;;6097929;23;20224;-68
2022/01/22 07:55:30;;;;;;;2.65;1.65;;;2.80;65.80;;;;;;6097695;23;20544;-68
2022/01/22 07:58:06;;;;;;;3.20;2.00;;;2.80;66.10;;;;;;6097746;23;20154;-68
2022/01/22 08:00:36;;;;;;;4.32;2.85;;;2.80;66.30;;;;;;6097563;23;20153;-68
2022/01/22 08:03:10;;;;;;;2.63;1.73;;;2.80;66.60;;;;;;6097304;23;20169;-68
2022/01/22 08:05:44;;;;;;;2.42;1.55;;;2.90;67.20;;;;;;6097445;23;20153;-68
2022/01/22 08:08:12;;;;;;;4.88;2.35;;;2.90;67.10;;;;;;6098014;23;20158;-68
2022/01/22 08:10:44;;;;;;;3.03;1.90;;;2.90;67.70;;;;;;6097422;23;20230;-68
2022/01/22 08:13:12;;;;;;;4.97;3.00;;;2.90;68.00;;;;;;6096724;23;20160;-68
2022/01/22 08:15:40;;;;;;;4.78;2.20;;;3.00;67.90;;;;;;6097273;23;20170;-69
2022/01/22 08:18:15;;;;;;;3.60;2.20;;;3.10;68.00;;;;;;6097467;23;20169;-69
2022/01/22 08:20:48;;;;;;;5.63;2.38;;;3.10;67.90;;;;;;6096754;23;20153;-68
2022/01/22 08:23:21;;;;;;;4.07;2.58;;;3.10;67.70;;;;;;6097136;23;20154;-68
2022/01/22 08:25:51;;;;;;;4.13;1.92;;;3.10;67.70;;;;;;6096783;23;20229;-68
2022/01/22 08:31:17;;;;;;;2.63;1.70;;;3.20;68.90;;;;;;6096592;23;20213;-69
2022/01/22 08:36:37;;;;;;;4.07;2.63;;;3.20;69.90;;;;;;6096174;23;20154;-68
2022/01/22 08:39:05;;;;;;;7.00;4.60;;;3.20;70.30;;;;;;6095949;23;20312;-68
2022/01/22 08:41:34;;;;;;;5.10;3.60;;;3.20;70.50;;;;;;6095976;23;20209;-68
2022/01/22 08:44:01;;;;;;;7.45;2.35;;;3.20;70.60;;;;;;6097047;23;20225;-68
2022/01/22 08:46:31;;;;;;;3.15;2.17;;;3.20;70.70;;;;;;6096868;23;20168;-68
2022/01/22 08:49:00;;;;;;;3.60;2.30;;;3.20;70.50;;;;;;6097036;23;20542;-68
2022/01/22 08:51:32;;;;;;;4.78;2.80;;;3.20;70.50;;;;;;6096382;23;20240;-68
2022/01/22 08:54:01;;;;;;;3.15;2.40;;;3.30;70.30;;;;;;6096705;23;20201;-68
2022/01/22 08:56:33;;;;;;;5.78;3.40;;;3.30;69.90;;;;;;6097160;23;20508;-68
2022/01/22 08:59:00;;;;;;;6.40;2.80;;;3.40;69.90;;;;;;6097377;23;20241;-68
2022/01/22 09:01:32;;;;;;;4.55;2.30;;;3.30;69.60;;;;;;6096020;23;20169;-69
2022/01/22 09:04:00;;;;;;;4.50;2.13;;;3.40;70.30;;;;;;6096697;23;20162;-69
2022/01/22 09:06:32;;;;;;;3.00;1.90;;;3.40;69.30;;;;;;6094233;23;20173;-68
2022/01/22 09:09:08;;;;;;;3.85;2.60;;;3.40;69.50;;;;;;6095199;23;20232;-68
2022/01/22 09:11:43;;;;;;;3.90;2.33;;;3.40;69.50;;;;;;6096189;23;20157;-68
2022/01/22 09:14:12;;;;;;;3.50;2.90;;;3.50;69.50;;;;;;6095138;23;20664;-69
2022/01/22 09:16:43;;;;;;;3.65;2.42;;;3.50;69.10;;;;;;6095983;23;20173;-68
2022/01/22 09:19:12;;;;;;;3.55;2.10;;;3.40;69.00;;;;;;6095589;23;20246;-72
2022/01/22 09:21:42;;;;;;;6.18;2.45;;;3.50;69.20;;;;;;6096086;23;20635;-68
2022/01/22 09:24:15;;;;;;;2.92;2.00;;;3.50;69.10;;;;;;6096068;23;20696;-68
2022/01/22 09:26:42;;;;;;;4.25;2.10;;;3.40;69.40;;;;;;6096036;23;20161;-68
2022/01/22 09:29:11;;;;;;;3.05;1.77;;;3.40;69.90;;;;;;6095532;23;20174;-68
2022/01/22 09:31:39;;;;;;;3.63;2.03;;;3.40;69.70;;;;;;6096150;23;20476;-68
2022/01/22 09:34:14;;;;;;;4.35;1.77;;;3.40;69.70;;;;;;6095920;23;20224;-68
2022/01/22 09:36:41;;;;;;;5.28;2.17;;;3.40;69.80;;;;;;6096314;23;20161;-68
2022/01/22 09:39:08;;;;;;;2.58;1.98;;;3.50;69.60;;;;;;6095333;23;20253;-68
2022/01/22 09:41:40;;;;;;;3.10;1.80;;;3.50;69.40;;;;;;6094193;23;20204;-68
2022/01/22 09:44:07;;;;;;;4.55;2.47;;;3.60;69.50;;;;;;6095697;23;20154;-69
2022/01/22 09:46:40;;;;;;;2.42;1.83;;;3.60;69.40;;;;;;6094954;23;20173;-69
2022/01/22 09:49:13;;;;;;;3.65;2.47;;;3.70;69.40;;;;;;6095414;23;20609;-68
2022/01/22 09:51:46;;;;;;;3.20;2.13;;;3.80;69.20;;;;;;6095004;23;20162;-68
2022/01/22 09:54:13;;;;;;;3.10;2.63;;;3.80;69.20;;;;;;6095944;23;20154;-69
2022/01/22 09:56:44;;;;;;;3.47;2.90;;;3.80;68.80;;;;;;6095557;23;20173;-69
2022/01/22 09:59:11;;;;;;;3.75;1.95;;;3.80;69.40;;;;;;6094554;23;20645;-69
2022/01/22 10:01:41;;;;;;;3.78;2.10;;;3.80;69.80;;;;;;6095624;23;20169;-68
2022/01/22 10:04:09;;;;;;;4.97;3.05;;;3.80;69.80;;;;;;6094940;23;20224;-68
2022/01/22 10:06:50;;;;;;;6.65;3.60;;;3.80;69.50;;;;;;6096106;23;20189;-68
2022/01/22 10:09:27;;;;;;;4.30;2.50;;;3.80;69.70;;;;;;6095090;23;20232;-68
2022/01/22 10:12:12;;;;;;;3.47;2.88;;;3.80;69.60;;;;;;6094957;23;20617;-68
2022/01/22 10:15:12;;;;;;;4.00;2.80;;;3.80;70.30;;;;;;6094872;23;20496;-71
2022/01/22 10:17:43;;;;;;;3.08;2.35;;;3.90;70.20;;;;;;6095584;23;20169;-68
2022/01/22 10:20:32;;;;;;;4.85;2.42;;;3.90;69.80;;;;;;6095527;23;20185;-68
2022/01/22 10:23:02;;;;;;;7.05;3.58;;;3.90;69.70;;;;;;6094218;23;20745;-67
2022/01/22 10:25:35;;;;;;;4.63;2.88;;;3.80;69.70;;;;;;6095668;23;20154;-68
2022/01/22 10:28:10;;;;;;;6.75;4.40;;;3.80;69.80;;;;;;6095987;23;20190;-68
2022/01/22 10:30:40;;;;;;;3.70;2.65;;;3.90;70.20;;;;;;6096138;23;20153;-68
2022/01/22 10:33:27;;;;;;;5.85;2.80;;;4.00;70.50;;;;;;6096197;23;20176;-68
2022/01/22 10:36:09;;;;;;;4.18;3.28;;;4.00;70.10;;;;;;6095910;23;20677;-68
2022/01/22 10:38:47;;;;;;;3.58;2.58;;;4.10;70.40;;;;;;6096462;23;20188;-68
2022/01/22 10:41:19;;;;;;;3.85;2.55;;;4.10;70.50;;;;;;6095371;23;20192;-68
2022/01/22 10:44:00;;;;;;;4.22;3.40;;;4.10;70.20;;;;;;6095753;23;20161;-68
2022/01/22 10:46:41;;;;;;;7.80;4.55;;;4.20;70.00;;;;;;6095872;23;20176;-68
2022/01/22 10:49:13;;;;;;;8.18;6.95;;;4.30;70.10;;;;;;6096552;23;20160;-68
2022/01/22 10:51:49;;;;;;;4.40;2.80;;;4.30;70.10;;;;;;6096636;23;20162;-68
2022/01/22 10:54:21;;;;;;;5.78;3.85;;;4.30;69.60;;;;;;6096156;23;20613;-69
2022/01/22 10:56:49;;;;;;;32.92;19.13;;;4.40;69.60;;;;;;6095447;23;20610;-68
2022/01/22 10:59:18;;;;;;;6.80;4.32;;;4.40;69.30;;;;;;6095783;23;20244;-69
2022/01/22 11:01:54;;;;;;;8.27;3.10;;;4.50;69.20;;;;;;6096308;23;20261;-68
2022/01/22 11:04:26;;;;;;;2.90;2.60;;;4.50;68.60;;;;;;6092729;23;20629;-69
2022/01/22 11:06:56;;;;;;;3.67;2.40;;;4.50;69.00;;;;;;6092806;23;20516;-68
2022/01/22 11:09:26;;;;;;;3.60;2.45;;;4.60;69.00;;;;;;6091541;23;20162;-70
2022/01/22 11:11:55;;;;;;;4.57;1.95;;;4.60;69.20;;;;;;6095436;23;20198;-69
2022/01/22 11:14:22;;;;;;;3.20;2.65;;;4.60;68.90;;;;;;6094863;23;20594;-68
2022/01/22 11:16:52;;;;;;;3.92;2.88;;;4.60;69.50;;;;;;6092803;23;20170;-68
2022/01/22 11:19:21;;;;;;;4.50;3.17;;;4.60;69.80;;;;;;6095477;23;20158;-69
2022/01/22 11:21:52;;;;;;;3.50;2.40;;;4.60;69.80;;;;;;6095364;23;20185;-68
2022/01/22 11:24:22;;;;;;;6.13;4.00;;;4.60;69.80;;;;;;6095303;23;20153;-68
2022/01/22 11:26:53;;;;;;;4.32;2.85;;;4.60;70.10;;;;;;6095862;23;20170;-69
2022/01/22 11:29:25;;;;;;;4.05;2.80;;;4.60;70.30;;;;;;6095284;23;20490;-68
2022/01/22 11:31:54;;;;;;;3.53;2.22;;;4.60;71.10;;;;;;6095367;23;20589;-68
2022/01/22 11:34:30;;;;;;;4.00;2.28;;;4.60;71.00;;;;;;6095247;23;20493;-68
2022/01/22 11:37:07;;;;;;;3.35;2.58;;;4.60;70.70;;;;;;6095446;23;20161;-68
2022/01/22 11:39:35;;;;;;;3.70;3.25;;;4.60;70.90;;;;;;6095486;23;20264;-68
2022/01/22 11:42:05;;;;;;;39.42;25.67;;;4.70;71.20;;;;;;6095576;23;20173;-68
2022/01/22 11:44:47;;;;;;;8.50;5.35;;;4.70;71.00;;;;;;6094869;23;20193;-72
2022/01/22 11:47:20;;;;;;;4.75;3.47;;;4.80;71.10;;;;;;6095849;23;20160;-68
2022/01/22 11:50:11;;;;;;;4.15;3.72;;;4.80;70.90;;;;;;6095252;23;20158;-68
2022/01/22 11:52:40;;;;;;;5.50;4.25;;;4.80;71.20;;;;;;6090202;23;20170;-67
2022/01/22 11:55:11;;;;;;;4.57;2.33;;;4.80;71.70;;;;;;6094400;23;20219;-69
2022/01/22 11:57:41;;;;;;;7.75;3.20;;;4.80;70.30;;;;;;6094613;23;20158;-68
2022/01/22 12:00:23;;;;;;;7.28;4.10;;;4.80;70.50;;;;;;6095295;23;20194;-68
2022/01/22 12:03:24;;;;;;;12.60;8.30;;;4.90;70.40;;;;;;6093545;23;20509;-68
2022/01/22 12:06:18;;;;;;;6.90;4.30;;;4.90;70.30;;;;;;6094162;23;20169;-70
2022/01/22 12:09:09;;;;;;;5.32;3.30;;;5.00;70.40;;;;;;6095486;23;20241;-68
2022/01/22 12:14:55;;;;;;;4.90;3.50;;;5.00;70.10;;;;;;6096158;23;20204;-68
2022/01/22 12:18:08;;;;;;;3.35;2.33;;;5.00;70.10;;;;;;6096875;23;20181;-68
2022/01/22 12:23:55;;;;;;;4.78;3.00;;;5.00;70.10;;;;;;6033499;23;20193;-68
2022/01/22 12:26:52;;;;;;;4.43;2.40;;;5.00;70.30;;;;;;6096765;23;20158;-68
2022/01/22 12:29:44;;;;;;;4.38;3.10;;;5.00;70.90;;;;;;6096838;23;20644;-68
2022/01/22 12:32:34;;;;;;;4.15;2.53;;;5.00;71.50;;;;;;6095835;23;20153;-69
2022/01/22 12:35:08;;;;;;;4.13;2.58;;;5.10;71.30;;;;;;6096681;23;20517;-68
2022/01/22 12:37:44;;;;;;;39.95;19.30;;;5.00;70.60;;;;;;6096438;23;20228;-68
2022/01/22 12:40:28;;;;;;;27.08;11.70;;;5.00;70.50;;;;;;6096677;23;20216;-69
2022/01/22 12:43:07;;;;;;;65.20;33.28;;;5.10;71.00;;;;;;6096500;23;20200;-68
2022/01/22 12:45:44;;;;;;;29.83;18.00;;;5.10;71.10;;;;;;6096800;23;20158;-68
2022/01/22 12:48:17;;;;;;;9.02;5.18;;;5.00;71.10;;;;;;6096391;23;20154;-68
2022/01/22 12:50:50;;;;;;;4.53;3.20;;;5.00;71.40;;;;;;6096795;23;20544;-67
2022/01/22 12:53:43;;;;;;;3.72;3.00;;;5.10;71.40;;;;;;6096408;23;20240;-69
2022/01/22 12:56:49;;;;;;;4.38;2.95;;;5.10;71.40;;;;;;6096614;23;20170;-69
2022/01/22 12:59:22;;;;;;;5.68;2.80;;;5.10;71.20;;;;;;6094997;23;20173;-68
2022/01/22 13:01:53;;;;;;;5.40;2.55;;;5.10;70.90;;;;;;6096150;23;20181;-68
2022/01/22 13:04:23;;;;;;;3.85;2.65;;;5.00;70.80;;;;;;6096220;23;20483;-68
2022/01/22 13:06:56;;;;;;;9.98;8.93;;;5.00;71.20;;;;;;6096075;23;20176;-71
2022/01/22 13:09:25;;;;;;;6.47;4.97;;;5.00;71.70;;;;;;6096125;23;20174;-68
2022/01/22 13:11:58;;;;;;;5.07;4.20;;;5.00;71.70;;;;;;6096235;23;20170;-68
2022/01/22 13:14:33;;;;;;;3.58;2.70;;;4.90;71.80;;;;;;6095894;23;20197;-67
2022/01/22 13:17:03;;;;;;;5.15;3.30;;;5.00;72.00;;;;;;6095669;23;20161;-70
2022/01/22 13:19:38;;;;;;;3.75;2.90;;;5.00;71.80;;;;;;6096215;23;20216;-68
2022/01/22 13:22:11;;;;;;;6.50;4.20;;;5.00;71.40;;;;;;6096410;23;20163;-69
2022/01/22 13:24:43;;;;;;;5.28;4.30;;;5.00;71.60;;;;;;6096102;23;20154;-68
2022/01/22 13:27:26;;;;;;;4.95;3.60;;;5.00;72.60;;;;;;6095827;23;20205;-67
2022/01/22 13:30:27;;;;;;;6.38;3.40;;;5.00;71.80;;;;;;6095740;23;20200;-67
2022/01/22 13:33:00;;;;;;;4.63;2.45;;;4.90;72.10;;;;;;6096211;23;20165;-67
2022/01/22 13:35:44;;;;;;;4.80;3.50;;;4.90;72.40;;;;;;6095837;23;20173;-67
2022/01/22 13:38:40;;;;;;;9.20;8.30;;;4.90;72.60;;;;;;6096040;23;20158;-70
2022/01/22 13:49:50;;;;;;;4.03;2.75;;;4.90;72.60;;;;;;6094513;23;20189;-68
2022/01/22 13:52:29;;;;;;;6.15;4.13;;;4.90;72.70;;;;;;6096251;23;20538;-67
2022/01/22 13:55:03;;;;;;;11.57;3.53;;;4.90;72.50;;;;;;6095414;23;20210;-69
2022/01/22 13:57:38;;;;;;;8.98;5.47;;;4.90;72.50;;;;;;6095816;23;20165;-68
2022/01/22 14:00:14;;;;;;;6.28;3.85;;;4.90;72.80;;;;;;6095892;23;20157;-68
2022/01/22 14:03:04;;;;;;;18.40;9.57;;;4.90;73.10;;;;;;6095336;23;20229;-69
2022/01/22 14:05:31;;;;;;;18.73;11.43;;;4.90;72.90;;;;;;6096038;23;20161;-68
2022/01/22 14:08:02;;;;;;;17.50;10.02;;;4.90;73.30;;;;;;6092143;23;20240;-68
2022/01/22 14:10:31;;;;;;;11.07;4.70;;;4.90;73.10;;;;;;6095171;23;20158;-67
2022/01/22 14:13:04;;;;;;;8.07;4.43;;;4.90;72.90;;;;;;6095846;23;20169;-67
2022/01/22 14:15:43;;;;;;;8.75;7.82;;;4.90;72.80;;;;;;6096188;23;20597;-67
2022/01/22 14:18:19;;;;;;;23.73;16.50;;;4.90;73.20;;;;;;6095691;23;20162;-68
2022/01/22 14:20:47;;;;;;;25.27;19.05;;;4.90;73.20;;;;;;6095565;23;20221;-69
2022/01/22 14:23:18;;;;;;;15.63;11.45;;;4.90;73.20;;;;;;6094076;23;20165;-68
2022/01/22 14:25:59;;;;;;;34.97;26.80;;;4.90;73.30;;;;;;6095697;23;20221;-68
2022/01/22 14:28:42;;;;;;;7.97;6.07;;;4.80;73.40;;;;;;6094884;23;20173;-68
2022/01/22 14:31:28;;;;;;;7.78;5.05;;;4.80;73.90;;;;;;6096353;23;20154;-67
2022/01/22 14:34:00;;;;;;;9.05;3.72;;;4.80;73.90;;;;;;6095783;23;20170;-67
2022/01/22 14:36:35;;;;;;;5.75;3.65;;;4.80;73.70;;;;;;6095932;23;20158;-67
2022/01/22 14:39:25;;;;;;;5.38;4.05;;;4.70;73.90;;;;;;6095317;23;20240;-68
2022/01/22 14:44:53;;;;;;;8.95;6.28;;;4.70;74.50;;;;;;5988333;23;20244;-68
2022/01/22 14:47:26;;;;;;;10.25;8.93;;;4.60;74.80;;;;;;6095689;23;20517;-68
2022/01/22 14:50:01;;;;;;;7.35;6.57;;;4.70;75.10;;;;;;6094919;23;20494;-68
2022/01/22 14:52:35;;;;;;;12.20;8.07;;;4.60;75.30;;;;;;6094363;23;20164;-67